Date,TemperatureHighF,TemperatureAvgF,TemperatureLowF,DewpointHighF,DewpointAvgF,DewpointLowF,HumidityHigh,HumidityAvg,HumidityLow,PressureMaxIn,PressureMinIn,WindSpeedMaxMPH,WindSpeedAvgMPH,GustSpeedMaxMPH,PrecipitationSumIn
2013-2-1,78.6,32.1,71.5,69.3,-28.2,-99.9,90,34,69,30.05,29.94,5,1,14,0.00
2013-2-2,83.2,35.7,65.8,64.3,-25.5,-99.9,89,28,46,30.02,29.91,5,1,14,0.00
2013-2-3,83.8,35.8,67.6,66.4,-27.2,-99.9,89,25,43,29.97,29.85,8,2,16,0.00
2013-2-4,80.9,34.8,67.6,65.0,-27.3,-99.9,83,27,48,29.97,29.86,7,1,17,0.00
2013-2-5,82.6,34.8,63.9,64.9,-27.6,-99.9,84,26,49,30.01,29.91,6,2,15,0.00
2013-2-6,83.8,34.7,70.6,67.0,-28.0,-99.9,88,27,46,30.00,29.89,6,2,17,0.00
2013-2-7,84.9,36.9,67.1,66.7,-24.4,-99.9,87,28,49,29.97,29.85,8,2,15,0.00
2013-2-8,83.0,35.0,72.1,69.7,-26.7,-99.9,89,29,55,29.97,29.87,9,2,20,0.14
2013-2-9,84.5,36.2,69.6,66.8,-26.1,-99.9,88,27,47,29.99,29.89,7,2,16,0.00
2013-2-10,83.6,36.4,68.1,66.7,-24.8,-99.9,86,28,48,30.03,29.93,9,3,17,0.00
2013-2-11,79.6,31.3,70.4,69.8,-29.9,-99.9,88,33,66,30.07,29.98,9,2,20,0.50
2013-2-12,81.1,35.3,65.5,63.7,-25.5,-99.9,87,28,53,30.05,29.97,9,2,18,0.00
2013-2-13,84.1,36.3,64.5,63.2,-26.8,-99.9,88,24,35,30.04,29.93,6,1,14,0.00
2013-2-14,83.2,36.4,68.4,67.2,-23.8,-99.9,88,29,55,30.04,29.95,7,2,15,0.00
2013-2-15,84.1,36.9,70.3,68.9,-23.8,-99.9,90,29,51,30.04,29.92,9,2,21,0.00
2013-2-16,84.0,36.1,73.0,68.0,-26.3,-99.9,81,26,46,29.99,29.89,9,2,23,0.00
2013-2-17,84.1,34.9,70.9,69.9,-27.3,-99.9,89,28,49,30.02,29.91,9,2,17,0.00
2013-2-18,83.0,34.3,68.6,66.9,-27.5,-99.9,89,29,54,30.07,29.96,9,2,18,0.01
2013-2-19,83.0,35.8,68.6,67.7,-24.3,-99.9,88,30,49,30.07,29.95,10,2,28,0.02
2013-2-20,83.2,34.4,69.4,70.1,-27.0,-99.9,89,30,53,30.02,29.88,8,2,18,0.05
2013-2-21,84.7,37.4,74.2,69.3,-23.6,-99.9,83,28,52,30.00,29.87,8,3,19,0.00
2013-2-22,83.8,36.4,68.8,67.2,-24.0,-99.9,84,29,52,30.02,29.91,9,2,16,0.00
2013-2-23,84.3,37.4,69.6,66.8,-22.9,-99.9,87,28,44,30.01,29.90,9,2,18,0.00
2013-2-24,83.6,35.6,67.8,68.1,-25.7,-99.9,86,29,52,29.99,29.86,8,2,21,0.00
2013-2-25,84.9,37.0,69.9,67.3,-24.5,-99.9,87,27,48,29.96,29.85,7,2,17,0.00
2013-2-26,84.9,37.3,70.8,68.1,-24.4,-99.9,87,27,46,30.00,29.90,8,2,17,0.00
2013-2-27,86.1,38.5,74.0,69.6,-22.2,-99.9,85,28,45,30.00,29.89,8,2,20,0.00
2013-2-28,85.1,38.1,70.3,66.4,-23.0,-99.9,85,27,47,29.97,29.85,8,2,18,0.00